createdAt,value
2019-01-31T00:05:57.794Z,34.4
2019-01-31T00:16:01.472Z,34.3
2019-01-31T00:26:05.150Z,34.4
2019-01-31T00:36:08.828Z,34.4
2019-01-31T00:46:12.491Z,34.3
2019-01-31T00:56:16.152Z,34.2
2019-01-31T01:06:19.835Z,34.2
2019-01-31T01:16:23.510Z,34.1
2019-01-31T01:26:27.200Z,34.1
2019-01-31T01:36:30.872Z,34
2019-01-31T01:46:34.560Z,34
2019-01-31T01:56:38.228Z,33.9
2019-01-31T02:06:41.886Z,33.9
2019-01-31T02:16:45.560Z,33.8
2019-01-31T02:26:49.232Z,33.8
2019-01-31T02:36:52.873Z,33.7
2019-01-31T02:46:56.561Z,33.6
2019-01-31T02:57:00.234Z,33.7
2019-01-31T03:07:03.886Z,33.6
2019-01-31T03:17:07.556Z,33.5
2019-01-31T03:27:11.217Z,33.6
2019-01-31T03:37:14.902Z,33.6
2019-01-31T03:47:18.583Z,33.6
2019-01-31T03:57:22.262Z,33.6
2019-01-31T04:07:25.913Z,33.6
2019-01-31T04:17:29.583Z,33.6
2019-01-31T04:27:33.271Z,33.5
2019-01-31T04:37:37.058Z,33.5
2019-01-31T04:47:40.737Z,33.4
2019-01-31T04:57:44.454Z,33.5
2019-01-31T05:07:48.158Z,33.4
2019-01-31T05:17:51.823Z,33.4
2019-01-31T05:27:55.503Z,33.3
2019-01-31T05:37:59.181Z,33.2
2019-01-31T05:48:02.833Z,33.1
2019-01-31T05:58:06.468Z,33
2019-01-31T06:08:10.119Z,32.8
2019-01-31T06:18:13.765Z,32.9
2019-01-31T06:28:17.471Z,32.9
2019-01-31T06:38:21.144Z,45.5
2019-01-31T06:48:24.810Z,33.4
2019-01-31T06:58:28.597Z,32.1
2019-01-31T07:08:32.239Z,31.5
2019-01-31T07:18:35.888Z,30.7
2019-01-31T07:28:39.565Z,31.3
2019-01-31T07:38:43.233Z,31.5
2019-01-31T07:48:46.971Z,32.2
2019-01-31T07:58:50.698Z,32.7
2019-01-31T08:08:54.382Z,33.5
2019-01-31T08:18:58.033Z,34.4
2019-01-31T08:29:01.708Z,35.6
2019-01-31T08:39:05.426Z,36.3
2019-01-31T08:49:09.103Z,34
2019-01-31T08:59:12.797Z,35.7
2019-01-31T09:09:16.472Z,36.6
2019-01-31T09:19:20.116Z,37.6
2019-01-31T09:29:23.790Z,38.1
2019-01-31T09:39:27.470Z,38.7
2019-01-31T09:49:31.150Z,39.9
2019-01-31T09:59:34.905Z,40.5
2019-01-31T10:09:38.622Z,41
2019-01-31T10:19:42.662Z,40.8
2019-01-31T10:29:46.474Z,40.8
2019-01-31T10:39:50.231Z,42
2019-01-31T10:49:53.913Z,41.2
2019-01-31T10:59:57.702Z,41.6
2019-01-31T11:10:01.425Z,41.8
2019-01-31T11:20:05.087Z,41.9
2019-01-31T11:30:09.757Z,43
2019-01-31T11:40:13.407Z,42.9
2019-01-31T11:50:17.081Z,43
2019-01-31T12:00:20.759Z,43.3
2019-01-31T12:10:24.445Z,44.4
2019-01-31T12:20:28.084Z,44.5
2019-01-31T12:30:31.766Z,44.8
2019-01-31T12:40:35.448Z,44.4
2019-01-31T12:50:39.227Z,43.9
2019-01-31T13:00:42.940Z,44.1
2019-01-31T13:10:46.608Z,44.4
2019-01-31T13:20:50.261Z,43.5
2019-01-31T13:30:53.939Z,43.3
2019-01-31T13:40:57.608Z,43.2
2019-01-31T13:51:01.285Z,42.7
2019-01-31T14:01:04.965Z,39.6
2019-01-31T14:11:08.627Z,40
2019-01-31T14:21:12.281Z,40
2019-01-31T14:31:15.982Z,40.7
2019-01-31T14:41:19.621Z,41.4
2019-01-31T14:51:23.269Z,42.2
2019-01-31T15:01:27.042Z,42.5
2019-01-31T15:11:30.718Z,42.5
2019-01-31T15:21:34.381Z,42.1
2019-01-31T15:31:38.071Z,41.9
2019-01-31T15:41:41.762Z,41.3
2019-01-31T15:51:45.448Z,41.5
2019-01-31T16:01:49.126Z,40.7
2019-01-31T16:11:52.886Z,39.9
2019-01-31T16:21:56.542Z,39.8
2019-01-31T16:32:00.220Z,39.3
2019-01-31T16:42:03.895Z,39.1
2019-01-31T16:52:07.594Z,39
2019-01-31T17:02:11.265Z,38.9
2019-01-31T17:12:14.948Z,40.1
2019-01-31T17:22:18.603Z,40.2
2019-01-31T17:32:22.276Z,40.9
2019-01-31T17:42:25.958Z,40.8
2019-01-31T17:52:29.628Z,40.9
2019-01-31T18:02:45.736Z,40.5
2019-01-31T18:12:49.453Z,40.2
2019-01-31T18:22:53.146Z,40
2019-01-31T18:32:56.819Z,39.5
2019-01-31T18:43:00.483Z,39
2019-01-31T18:53:04.199Z,38.6
2019-01-31T19:03:07.871Z,38.1
2019-01-31T19:13:11.548Z,37.9
2019-01-31T19:23:15.222Z,37.6
2019-01-31T19:33:18.904Z,37.5
2019-01-31T19:43:22.680Z,37.3
2019-01-31T19:53:26.357Z,37.4
2019-01-31T20:03:30.034Z,37.3
2019-01-31T20:13:33.717Z,37.3
2019-01-31T20:23:37.390Z,37
2019-01-31T20:33:41.064Z,37
2019-01-31T20:43:44.743Z,37.1
2019-01-31T20:53:48.444Z,37.1
2019-01-31T21:03:52.119Z,37.2
2019-01-31T21:13:55.837Z,37.2
2019-01-31T21:23:59.531Z,37.2
2019-01-31T21:34:03.207Z,37.3
2019-01-31T21:44:06.886Z,37.2
2019-01-31T21:54:10.551Z,37.1
2019-01-31T22:04:14.227Z,37.3
2019-01-31T22:14:17.919Z,37.6
2019-01-31T22:24:21.591Z,37.6
2019-01-31T22:34:25.267Z,37.5
2019-01-31T22:44:28.950Z,37.5
2019-01-31T22:54:32.631Z,37.2
2019-01-31T23:04:36.344Z,36.7
2019-01-31T23:14:40.099Z,36.4
2019-01-31T23:24:43.759Z,36.1
2019-01-31T23:34:47.406Z,36
2019-01-31T23:44:51.137Z,36
2019-01-31T23:54:54.805Z,35.8
